createdAt,value
2022-07-25T00:00:42.948Z,97895.03
2022-07-25T00:03:10.854Z,97895.21
2022-07-25T00:05:38.213Z,97895.81
2022-07-25T00:08:05.440Z,97899.21
2022-07-25T00:10:32.381Z,97902.83
2022-07-25T00:12:59.292Z,97901.89
2022-07-25T00:15:26.431Z,97903.02
2022-07-25T00:17:53.435Z,97901.84
2022-07-25T00:20:20.331Z,97904.15
2022-07-25T00:22:47.275Z,97903.30
2022-07-25T00:25:14.216Z,97905.88
2022-07-25T00:27:41.121Z,97906.73
2022-07-25T00:30:09.213Z,97908.08
2022-07-25T00:32:36.142Z,97904.12
2022-07-25T00:35:03.994Z,97902.67
2022-07-25T00:37:30.885Z,97902.88
2022-07-25T00:39:57.786Z,97904.61
2022-07-25T00:42:24.673Z,97903.58
2022-07-25T00:44:51.742Z,97903.27
2022-07-25T00:47:18.876Z,97906.30
2022-07-25T00:49:45.874Z,97909.17
2022-07-25T00:52:13.846Z,97912.66
2022-07-25T00:54:40.868Z,97911.85
2022-07-25T00:57:07.730Z,97909.17
2022-07-25T00:59:34.628Z,97908.59
2022-07-25T01:02:03.889Z,97907.26
2022-07-25T01:04:31.202Z,97904.63
2022-07-25T01:06:59.208Z,97908.20
2022-07-25T01:09:26.467Z,97905.80
2022-07-25T01:11:53.342Z,97906.39
2022-07-25T01:14:22.324Z,97902.98
2022-07-25T01:16:49.461Z,97897.63
2022-07-25T01:19:17.426Z,97895.50
2022-07-25T01:21:44.432Z,97888.58
2022-07-25T01:24:11.624Z,97883.70
2022-07-25T01:26:38.631Z,97883.02
2022-07-25T01:29:05.583Z,97886.95
2022-07-25T01:31:33.190Z,97884.17
2022-07-25T01:34:00.080Z,97882.34
2022-07-25T01:36:27.194Z,97880.61
2022-07-25T01:38:54.337Z,97880.92
2022-07-25T01:41:22.449Z,97881.54
2022-07-25T01:43:49.875Z,97882.22
2022-07-25T01:46:17.349Z,97883.73
2022-07-25T01:48:44.537Z,97885.25
2022-07-25T01:51:11.607Z,97884.77
2022-07-25T01:53:38.674Z,97877.38
2022-07-25T01:56:06.586Z,97882.52
2022-07-25T01:58:35.949Z,97882.13
2022-07-25T02:01:03.479Z,97887.47
2022-07-25T02:03:30.440Z,97880.61
2022-07-25T02:06:01.043Z,97885.46
2022-07-25T02:08:29.793Z,97887.30
2022-07-25T02:10:58.482Z,97890.77
2022-07-25T02:13:26.828Z,97885.21
2022-07-25T02:15:54.286Z,97886.64
2022-07-25T02:18:21.466Z,97893.09
2022-07-25T02:20:48.520Z,97892.73
2022-07-25T02:23:15.429Z,97894.98
2022-07-25T02:25:42.426Z,97893.52
2022-07-25T02:28:10.654Z,97899.81
2022-07-25T02:30:38.235Z,97905.38
2022-07-25T02:33:05.291Z,97909.59
2022-07-25T02:35:32.371Z,97911.41
2022-07-25T02:37:59.393Z,97905.73
2022-07-25T02:40:26.543Z,97907.80
2022-07-25T02:42:53.494Z,97906.15
2022-07-25T02:45:20.343Z,97916.08
2022-07-25T02:47:47.230Z,97918.20
2022-07-25T02:50:14.477Z,97910.56
2022-07-25T02:52:43.232Z,97913.26
2022-07-25T02:55:11.350Z,97915.61
2022-07-25T02:57:38.532Z,97918.06
2022-07-25T03:00:06.869Z,97914.38
2022-07-25T03:02:34.189Z,97916.73
2022-07-25T03:05:01.110Z,97916.16
2022-07-25T03:07:28.122Z,97913.27
2022-07-25T03:09:55.077Z,97914.44
2022-07-25T03:12:22.066Z,97912.17
2022-07-25T03:14:49.874Z,97914.77
2022-07-25T03:17:17.182Z,97915.16
2022-07-25T03:19:44.110Z,97913.57
2022-07-25T03:22:11.149Z,97916.45
2022-07-25T03:24:38.493Z,97917.95
2022-07-25T03:27:05.543Z,97913.94
2022-07-25T03:29:32.636Z,97911.59
2022-07-25T03:32:00.113Z,97912.89
2022-07-25T03:34:27.684Z,97914.61
2022-07-25T03:36:54.506Z,97912.34
2022-07-25T03:39:21.854Z,97914.17
2022-07-25T03:41:48.738Z,97919.69
2022-07-25T03:44:15.693Z,97915.34
2022-07-25T03:46:42.645Z,97917.33
2022-07-25T03:49:09.750Z,97910.43
2022-07-25T03:51:36.946Z,97910.17
2022-07-25T03:54:05.781Z,97905.72
2022-07-25T03:56:48.619Z,97906.73
2022-07-25T03:59:19.948Z,97909.03
2022-07-25T04:01:49.338Z,97910.54
2022-07-25T04:04:17.436Z,97909.84
2022-07-25T04:06:44.931Z,97904.40
2022-07-25T04:09:13.198Z,97903.91
2022-07-25T04:11:40.092Z,97901.94
2022-07-25T04:14:07.516Z,97901.49
2022-07-25T04:16:34.968Z,97902.11
2022-07-25T04:19:05.191Z,97899.10
2022-07-25T04:21:34.151Z,97899.53
2022-07-25T04:24:01.143Z,97895.13
2022-07-25T04:26:27.988Z,97894.92
2022-07-25T04:28:57.079Z,97892.39
2022-07-25T04:31:25.514Z,97897.27
2022-07-25T04:33:52.491Z,97897.86
2022-07-25T04:36:19.654Z,97897.39
2022-07-25T04:38:46.808Z,97896.77
2022-07-25T04:41:13.667Z,97892.58
2022-07-25T04:43:44.908Z,97891.80
2022-07-25T04:46:22.538Z,97891.95
2022-07-25T04:48:50.818Z,97886.45
2022-07-25T04:51:18.879Z,97880.45
2022-07-25T04:53:46.131Z,97884.86
2022-07-25T04:56:13.095Z,97887.51
2022-07-25T04:58:40.356Z,97883.25
2022-07-25T05:01:07.453Z,97880.33
2022-07-25T05:03:35.055Z,97876.65
2022-07-25T05:06:02.214Z,97878.14
2022-07-25T05:08:30.161Z,97880.02
2022-07-25T05:10:57.132Z,97879.36
2022-07-25T05:13:24.223Z,97879.04
2022-07-25T05:15:51.100Z,97879.77
2022-07-25T05:18:18.098Z,97883.48
2022-07-25T05:20:45.022Z,97883.55
2022-07-25T05:23:11.921Z,97883.34
2022-07-25T05:25:39.155Z,97885.89
2022-07-25T05:28:05.983Z,97888.23
2022-07-25T05:30:37.835Z,97887.19
2022-07-25T05:33:07.118Z,97888.81
2022-07-25T05:35:34.250Z,97884.78
2022-07-25T05:38:01.245Z,97879.32
2022-07-25T05:40:28.421Z,97879.52
2022-07-25T05:42:58.290Z,97875.55
2022-07-25T05:45:29.521Z,97868.52
2022-07-25T05:47:56.384Z,97870.80
2022-07-25T05:50:23.630Z,97866.88
2022-07-25T05:52:50.600Z,97862.75
2022-07-25T05:55:18.020Z,97865.02
2022-07-25T05:57:45.226Z,97866.11
2022-07-25T06:00:13.097Z,97864.01
2022-07-25T06:02:40.390Z,97863.54
2022-07-25T06:05:08.422Z,97859.09
2022-07-25T06:07:35.674Z,97858.70
2022-07-25T06:10:03.644Z,97865.23
2022-07-25T06:12:33.148Z,97860.73
2022-07-25T06:15:00.813Z,97861.67
2022-07-25T06:17:32.244Z,97865.27
2022-07-25T06:19:59.926Z,97858.49
2022-07-25T06:22:26.974Z,97859.81
2022-07-25T06:24:53.921Z,97856.63
2022-07-25T06:27:23.920Z,97855.58
2022-07-25T06:29:53.239Z,97852.61
2022-07-25T06:32:20.287Z,97852.45
2022-07-25T06:34:47.437Z,97848.36
2022-07-25T06:37:15.613Z,97846.87
2022-07-25T06:39:45.640Z,97845.46
2022-07-25T06:42:13.397Z,97844.08
2022-07-25T06:44:40.547Z,97843.23
2022-07-25T06:47:12.307Z,97843.86
2022-07-25T06:49:40.447Z,97840.90
2022-07-25T06:52:08.478Z,97838.96
2022-07-25T06:54:35.496Z,97837.54
2022-07-25T06:57:03.880Z,97835.83
2022-07-25T06:59:31.344Z,97829.20
2022-07-25T07:01:58.595Z,97825.17
2022-07-25T07:04:25.637Z,97826.98
2022-07-25T07:06:52.683Z,97825.26
2022-07-25T07:09:19.758Z,97822.86
2022-07-25T07:11:46.781Z,97815.59
2022-07-25T07:14:13.829Z,97815.52
2022-07-25T07:16:41.965Z,97808.55
2022-07-25T07:19:10.748Z,97806.77
2022-07-25T07:21:37.944Z,97805.80
2022-07-25T07:24:18.509Z,97807.42
2022-07-25T07:26:51.394Z,97810.14
2022-07-25T07:29:18.750Z,97809.82
2022-07-25T07:31:45.950Z,97808.89
2022-07-25T07:34:16.279Z,97807.07
2022-07-25T07:36:43.892Z,97805.02
2022-07-25T07:39:11.448Z,97805.20
2022-07-25T07:41:38.702Z,97803.80
2022-07-25T07:44:05.754Z,97800.35
2022-07-25T07:46:32.863Z,97794.17
2022-07-25T07:48:59.941Z,97798.85
2022-07-25T07:51:27.104Z,97803.54
2022-07-25T07:54:12.683Z,97803.14
2022-07-25T07:56:39.732Z,97798.84
2022-07-25T07:59:07.457Z,97797.01
2022-07-25T08:01:34.912Z,97792.52
2022-07-25T08:04:02.108Z,97797.20
2022-07-25T08:06:29.156Z,97795.17
2022-07-25T08:08:56.099Z,97794.30
2022-07-25T08:11:23.048Z,97794.39
2022-07-25T08:13:50.123Z,97790.23
2022-07-25T08:16:17.403Z,97785.53
2022-07-25T08:18:44.601Z,97786.36
2022-07-25T08:21:11.650Z,97785.36
2022-07-25T08:23:39.622Z,97785.33
2022-07-25T08:26:07.386Z,97785.30
2022-07-25T08:28:34.842Z,97782.23
2022-07-25T08:31:01.984Z,97780.34
2022-07-25T08:33:29.249Z,97778.84
2022-07-25T08:35:58.133Z,97779.02
2022-07-25T08:38:27.997Z,97781.23
2022-07-25T08:40:56.944Z,97780.52
2022-07-25T08:43:24.202Z,97777.85
2022-07-25T08:45:53.799Z,97777.35
2022-07-25T08:48:25.972Z,97768.63
2022-07-25T08:50:56.504Z,97768.30
2022-07-25T08:53:33.481Z,97767.73
2022-07-25T08:56:11.621Z,97764.10
2022-07-25T08:58:41.675Z,97762.88
2022-07-25T09:01:12.351Z,97766.37
2022-07-25T09:03:39.909Z,97766.98
2022-07-25T09:06:22.018Z,97764.80
2022-07-25T09:08:58.341Z,97765.77
2022-07-25T09:11:31.695Z,97764.72
2022-07-25T09:14:07.249Z,97765.98
2022-07-25T09:16:40.838Z,97764.23
2022-07-25T09:19:12.912Z,97762.34
2022-07-25T09:21:42.314Z,97761.38
2022-07-25T09:24:18.709Z,97758.20
2022-07-25T09:26:52.031Z,97755.34
2022-07-25T09:29:23.410Z,97757.52
2022-07-25T09:31:51.845Z,97753.70
2022-07-25T09:34:33.475Z,97752.10
2022-07-25T09:37:03.261Z,97749.24
2022-07-25T09:39:45.841Z,97754.12
2022-07-25T09:42:35.988Z,97754.86
2022-07-25T09:45:12.996Z,97753.39
2022-07-25T09:47:50.575Z,97755.07
2022-07-25T09:50:19.466Z,97752.21
2022-07-25T09:52:46.947Z,97749.56
2022-07-25T09:55:15.399Z,97753.15
2022-07-25T09:57:44.479Z,97752.47
2022-07-25T10:00:17.533Z,97747.08
2022-07-25T10:03:05.893Z,97747.71
2022-07-25T10:06:06.157Z,97746.80
2022-07-25T10:08:39.163Z,97744.30
2022-07-25T10:11:18.789Z,97740.55
2022-07-25T10:13:46.351Z,97738.31
2022-07-25T10:16:23.376Z,97734.52
2022-07-25T10:19:00.928Z,97730.36
2022-07-25T10:21:29.061Z,97722.84
2022-07-25T10:24:07.959Z,97722.07
2022-07-25T10:26:39.275Z,97719.77
2022-07-25T10:29:11.367Z,97719.17
2022-07-25T10:31:50.478Z,97715.11
2022-07-25T10:34:32.733Z,97716.57
2022-07-25T10:37:17.956Z,97709.16
2022-07-25T10:39:46.361Z,97702.88
2022-07-25T10:42:16.692Z,97701.14
2022-07-25T10:44:49.880Z,97691.73
2022-07-25T10:47:17.813Z,97688.48
2022-07-25T10:50:15.303Z,97688.42
2022-07-25T10:52:42.067Z,97688.29
2022-07-25T10:55:09.175Z,97682.42
2022-07-25T10:57:41.732Z,97675.35
2022-07-25T11:00:17.829Z,97673.71
2022-07-25T11:02:45.104Z,97667.98
2022-07-25T11:05:12.111Z,97663.86
2022-07-25T11:08:19.126Z,97659.55
2022-07-25T11:10:38.979Z,97658.91
2022-07-25T11:13:14.528Z,97659.94
2022-07-25T11:15:42.494Z,97656.38
2022-07-25T11:18:09.648Z,97654.40
2022-07-25T11:20:36.799Z,97646.31
2022-07-25T11:23:03.875Z,97648.02
2022-07-25T11:25:30.996Z,97639.60
2022-07-25T11:28:00.729Z,97638.03
2022-07-25T11:30:29.190Z,97632.43
2022-07-25T11:33:00.845Z,97629.02
2022-07-25T11:35:31.057Z,97627.30
2022-07-25T11:38:02.830Z,97626.30
2022-07-25T11:40:32.131Z,97624.23
2022-07-25T11:42:59.280Z,97630.58
2022-07-25T11:45:33.263Z,97624.84
2022-07-25T11:48:12.826Z,97626.75
2022-07-25T11:50:44.597Z,97624.17
2022-07-25T11:53:16.135Z,97618.17
2022-07-25T11:55:43.949Z,97615.08
2022-07-25T11:58:13.503Z,97613.64
2022-07-25T12:00:50.295Z,97610.00
2022-07-25T12:03:22.555Z,97606.16
2022-07-25T12:05:49.756Z,97600.86
2022-07-25T12:08:20.301Z,97594.48
2022-07-25T12:10:50.561Z,97593.77
2022-07-25T12:13:26.229Z,97589.65
2022-07-25T12:15:55.170Z,97592.54
2022-07-25T12:18:22.468Z,97586.12
2022-07-25T12:20:50.028Z,97579.66
2022-07-25T12:23:18.305Z,97581.13
2022-07-25T12:25:46.705Z,97584.24
2022-07-25T12:28:14.171Z,97579.86
2022-07-25T12:30:43.858Z,97576.08
2022-07-25T12:33:12.368Z,97570.55
2022-07-25T12:35:43.841Z,97572.27
2022-07-25T12:38:11.434Z,97567.94
2022-07-25T12:40:38.601Z,97567.39
2022-07-25T12:43:06.367Z,97562.45
2022-07-25T12:45:33.772Z,97562.33
2022-07-25T12:48:00.872Z,97560.97
2022-07-25T12:50:28.229Z,97556.05
2022-07-25T12:52:55.280Z,97551.29
2022-07-25T12:55:23.145Z,97547.59
2022-07-25T12:57:50.910Z,97546.95
2022-07-25T13:00:20.673Z,97546.89
2022-07-25T13:02:50.765Z,97546.23
2022-07-25T13:05:19.094Z,97540.23
2022-07-25T13:07:46.991Z,97539.12
2022-07-25T13:10:14.796Z,97540.50
2022-07-25T13:12:42.108Z,97537.55
2022-07-25T13:15:10.143Z,97533.41
2022-07-25T13:17:37.949Z,97529.95
2022-07-25T13:20:06.062Z,97534.09
2022-07-25T13:22:33.068Z,97532.23
2022-07-25T13:25:00.144Z,97528.01
2022-07-25T13:27:27.166Z,97529.80
2022-07-25T13:29:54.526Z,97528.73
2022-07-25T13:32:23.008Z,97520.69
2022-07-25T13:34:50.260Z,97512.88
2022-07-25T13:37:17.815Z,97506.16
2022-07-25T13:39:44.868Z,97502.95
2022-07-25T13:42:12.221Z,97502.59
2022-07-25T13:44:39.192Z,97504.67
2022-07-25T13:47:06.420Z,97501.52
2022-07-25T13:49:33.363Z,97502.95
2022-07-25T13:52:00.414Z,97496.64
2022-07-25T13:54:27.565Z,97495.64
2022-07-25T13:56:54.613Z,97497.10
2022-07-25T13:59:22.077Z,97494.26
2022-07-25T14:01:50.091Z,97496.89
2022-07-25T14:04:17.809Z,97491.06
2022-07-25T14:06:44.744Z,97486.79
2022-07-25T14:09:11.784Z,97486.70
2022-07-25T14:11:38.724Z,97489.33
2022-07-25T14:14:05.574Z,97483.46
2022-07-25T14:16:33.823Z,97480.62
2022-07-25T14:19:01.629Z,97480.30
2022-07-25T14:21:29.500Z,97478.93
2022-07-25T14:23:56.857Z,97481.65
2022-07-25T14:26:24.007Z,97478.93
2022-07-25T14:28:51.373Z,97478.46
2022-07-25T14:31:18.808Z,97478.13
2022-07-25T14:33:46.277Z,97477.02
2022-07-25T14:36:13.224Z,97474.48
2022-07-25T14:38:40.118Z,97474.33
2022-07-25T14:41:12.587Z,97467.83
2022-07-25T14:43:41.694Z,97465.88
2022-07-25T14:46:09.464Z,97469.30
2022-07-25T14:48:37.375Z,97468.91
2022-07-25T14:51:05.705Z,97465.82
2022-07-25T14:53:34.579Z,97460.73
2022-07-25T14:56:05.883Z,97460.36
2022-07-25T14:58:33.245Z,97465.02
2022-07-25T15:01:01.057Z,97459.65
2022-07-25T15:03:28.264Z,97459.98
2022-07-25T15:05:55.264Z,97456.17
2022-07-25T15:08:22.879Z,97456.40
2022-07-25T15:10:49.923Z,97453.21
2022-07-25T15:13:32.948Z,97455.29
2022-07-25T15:16:01.778Z,97451.64
2022-07-25T15:18:29.229Z,97453.58
2022-07-25T15:20:56.715Z,97449.30
2022-07-25T15:23:24.383Z,97446.34
2022-07-25T15:26:03.498Z,97448.27
2022-07-25T15:28:37.353Z,97449.11
2022-07-25T15:31:06.096Z,97445.73
2022-07-25T15:33:33.606Z,97445.09
2022-07-25T15:36:00.784Z,97441.47
2022-07-25T15:38:30.889Z,97436.61
2022-07-25T15:40:57.950Z,97433.95
2022-07-25T15:43:25.891Z,97436.03
2022-07-25T15:45:52.856Z,97432.43
2022-07-25T15:48:20.296Z,97434.05
2022-07-25T15:50:51.048Z,97429.79
2022-07-25T15:53:18.489Z,97433.58
2022-07-25T15:55:45.843Z,97436.33
2022-07-25T15:58:13.213Z,97431.83
2022-07-25T16:00:41.298Z,97432.66
2022-07-25T16:03:09.855Z,97437.41
2022-07-25T16:05:38.836Z,97436.78
2022-07-25T16:08:10.610Z,97435.77
2022-07-25T16:10:38.068Z,97435.36
2022-07-25T16:13:05.319Z,97435.82
2022-07-25T16:15:32.367Z,97433.91
2022-07-25T16:18:02.623Z,97433.11
2022-07-25T16:20:33.797Z,97435.89
2022-07-25T16:23:01.407Z,97441.00
2022-07-25T16:25:29.787Z,97439.67
2022-07-25T16:27:58.176Z,97437.92
2022-07-25T16:30:25.724Z,97442.79
2022-07-25T16:32:53.176Z,97438.20
2022-07-25T16:35:20.138Z,97435.15
2022-07-25T16:37:47.681Z,97440.09
2022-07-25T16:40:15.138Z,97444.71
2022-07-25T16:42:42.596Z,97445.90
2022-07-25T16:45:10.947Z,97446.55
2022-07-25T16:47:40.412Z,97448.64
2022-07-25T16:50:08.427Z,97450.78
2022-07-25T16:52:35.406Z,97447.48
2022-07-25T16:55:02.551Z,97448.38
2022-07-25T16:57:32.069Z,97452.11
2022-07-25T17:00:00.437Z,97452.95
2022-07-25T17:02:29.738Z,97453.02
2022-07-25T17:04:57.912Z,97454.71
2022-07-25T17:07:26.088Z,97454.35
2022-07-25T17:09:53.263Z,97449.09
2022-07-25T17:12:20.798Z,97451.92
2022-07-25T17:14:47.709Z,97452.33
2022-07-25T17:17:14.793Z,97453.29
2022-07-25T17:19:42.050Z,97454.63
2022-07-25T17:22:09.915Z,97453.36
2022-07-25T17:24:38.496Z,97452.21
2022-07-25T17:27:08.030Z,97453.58
2022-07-25T17:29:36.384Z,97457.20
2022-07-25T17:32:06.291Z,97457.05
2022-07-25T17:34:33.655Z,97456.16
2022-07-25T17:37:03.328Z,97459.46
2022-07-25T17:39:32.052Z,97458.50
2022-07-25T17:41:59.920Z,97457.73
2022-07-25T17:44:27.276Z,97460.61
2022-07-25T17:46:54.922Z,97460.30
2022-07-25T17:49:22.290Z,97463.23
2022-07-25T17:51:50.057Z,97464.69
2022-07-25T17:54:17.297Z,97468.02
2022-07-25T17:56:45.005Z,97469.92
2022-07-25T17:59:13.255Z,97469.46
2022-07-25T18:01:40.399Z,97467.20
2022-07-25T18:04:07.933Z,97466.43
2022-07-25T18:06:35.228Z,97468.98
2022-07-25T18:09:02.251Z,97474.94
2022-07-25T18:11:29.133Z,97474.05
2022-07-25T18:13:56.023Z,97472.41
2022-07-25T18:16:23.035Z,97474.29
2022-07-25T18:18:50.065Z,97472.65
2022-07-25T18:21:17.096Z,97474.58
2022-07-25T18:23:43.964Z,97474.86
2022-07-25T18:26:10.838Z,97474.44
2022-07-25T18:28:37.768Z,97476.38
2022-07-25T18:31:05.124Z,97477.67
2022-07-25T18:33:32.108Z,97477.59
2022-07-25T18:36:00.898Z,97483.26
2022-07-25T18:38:31.540Z,97484.39
2022-07-25T18:41:26.452Z,97481.93
2022-07-25T18:43:47.172Z,97485.75
2022-07-25T18:46:15.678Z,97488.65
2022-07-25T18:48:44.125Z,97491.02
2022-07-25T18:51:11.688Z,97492.80
2022-07-25T18:53:38.589Z,97490.07
2022-07-25T18:56:05.652Z,97495.41
2022-07-25T18:58:32.562Z,97495.36
2022-07-25T19:00:59.493Z,97498.02
2022-07-25T19:03:27.026Z,97501.16
2022-07-25T19:05:54.143Z,97503.44
2022-07-25T19:08:21.125Z,97505.64
2022-07-25T19:10:48.095Z,97509.65
2022-07-25T19:13:32.682Z,97506.73
2022-07-25T19:16:01.911Z,97509.39
2022-07-25T19:18:29.610Z,97512.98
2022-07-25T19:20:56.667Z,97516.11
2022-07-25T19:23:23.548Z,97512.08
2022-07-25T19:25:50.444Z,97516.62
2022-07-25T19:28:17.444Z,97514.05
2022-07-25T19:30:44.393Z,97518.34
2022-07-25T19:33:11.309Z,97521.09
2022-07-25T19:35:38.264Z,97524.13
2022-07-25T19:38:05.547Z,97524.04
2022-07-25T19:40:33.330Z,97525.36
2022-07-25T19:43:02.286Z,97528.23
2022-07-25T19:45:32.032Z,97526.27
2022-07-25T19:48:00.536Z,97528.75
2022-07-25T19:50:27.774Z,97526.10
2022-07-25T19:52:55.069Z,97526.98
2022-07-25T19:55:22.096Z,97526.19
2022-07-25T19:57:50.658Z,97526.09
2022-07-25T20:00:17.567Z,97526.92
2022-07-25T20:02:44.523Z,97527.83
2022-07-25T20:05:12.045Z,97528.21
2022-07-25T20:07:38.945Z,97528.92
2022-07-25T20:10:06.883Z,97532.59
2022-07-25T20:12:35.222Z,97527.69
2022-07-25T20:15:04.445Z,97530.23
2022-07-25T20:17:34.304Z,97526.57
2022-07-25T20:20:01.673Z,97531.20
2022-07-25T20:22:30.856Z,97533.11
2022-07-25T20:24:57.768Z,97533.20
2022-07-25T20:27:24.965Z,97534.81
2022-07-25T20:29:51.929Z,97531.77
2022-07-25T20:32:18.887Z,97534.27
2022-07-25T20:34:45.777Z,97532.77
2022-07-25T20:37:12.622Z,97534.35
2022-07-25T20:39:40.613Z,97535.09
2022-07-25T20:42:07.539Z,97535.13
2022-07-25T20:44:34.478Z,97540.18
2022-07-25T20:47:01.635Z,97542.95
2022-07-25T20:49:28.498Z,97547.42
2022-07-25T20:51:55.417Z,97552.27
2022-07-25T20:54:22.408Z,97553.50
2022-07-25T20:56:49.495Z,97552.98
2022-07-25T20:59:17.588Z,97551.85
2022-07-25T21:01:44.588Z,97552.72
2022-07-25T21:04:11.639Z,97548.45
2022-07-25T21:06:38.477Z,97548.30
2022-07-25T21:09:05.872Z,97547.15
2022-07-25T21:11:35.172Z,97543.29
2022-07-25T21:14:04.829Z,97540.59
2022-07-25T21:16:33.161Z,97538.23
2022-07-25T21:19:00.167Z,97535.58
2022-07-25T21:21:27.192Z,97538.70
2022-07-25T21:23:54.141Z,97535.02
2022-07-25T21:26:20.990Z,97534.30
2022-07-25T21:28:47.885Z,97537.84
2022-07-25T21:31:17.261Z,97538.45
2022-07-25T21:33:44.796Z,97536.37
2022-07-25T21:36:11.677Z,97533.28
2022-07-25T21:38:38.522Z,97534.17
2022-07-25T21:41:06.397Z,97535.55
2022-07-25T21:43:33.671Z,97533.45
2022-07-25T21:46:00.718Z,97537.05
2022-07-25T21:48:46.287Z,97534.20
2022-07-25T21:51:18.826Z,97535.91
2022-07-25T21:53:51.587Z,97527.56
2022-07-25T21:56:19.577Z,97523.97
2022-07-25T21:58:46.586Z,97521.94
2022-07-25T22:01:13.550Z,97520.13
2022-07-25T22:03:40.773Z,97517.45
2022-07-25T22:06:09.530Z,97515.57
2022-07-25T22:08:36.455Z,97520.85
2022-07-25T22:11:15.866Z,97519.56
2022-07-25T22:13:51.891Z,97521.56
2022-07-25T22:16:19.128Z,97520.71
2022-07-25T22:18:46.133Z,97523.67
2022-07-25T22:21:14.323Z,97522.50
2022-07-25T22:23:43.742Z,97520.32
2022-07-25T22:26:10.721Z,97525.21
2022-07-25T22:28:37.605Z,97529.52
2022-07-25T22:31:04.627Z,97529.64
2022-07-25T22:33:33.869Z,97531.88
2022-07-25T22:36:01.418Z,97528.29
2022-07-25T22:38:28.586Z,97528.40
2022-07-25T22:40:56.099Z,97532.92
2022-07-25T22:43:23.487Z,97535.86
2022-07-25T22:46:11.278Z,97533.60
2022-07-25T22:48:39.177Z,97538.23
2022-07-25T22:51:06.068Z,97536.50
2022-07-25T22:53:32.965Z,97535.67
2022-07-25T22:56:00.345Z,97532.69
2022-07-25T22:58:27.581Z,97534.00
2022-07-25T23:00:54.540Z,97527.77
2022-07-25T23:03:22.028Z,97527.09
2022-07-25T23:05:48.911Z,97528.59
2022-07-25T23:08:20.867Z,97524.59
2022-07-25T23:10:47.853Z,97525.61
2022-07-25T23:13:14.789Z,97520.11
2022-07-25T23:15:49.358Z,97515.83
2022-07-25T23:18:17.645Z,97511.58
2022-07-25T23:20:44.550Z,97511.80
2022-07-25T23:23:12.559Z,97505.90
2022-07-25T23:25:39.755Z,97513.08
2022-07-25T23:28:06.803Z,97512.39
2022-07-25T23:30:38.235Z,97510.80
2022-07-25T23:33:08.080Z,97504.61
2022-07-25T23:35:35.249Z,97504.58
2022-07-25T23:38:03.236Z,97503.35
2022-07-25T23:40:30.440Z,97502.84
2022-07-25T23:42:57.327Z,97503.44
2022-07-25T23:45:24.983Z,97501.65
2022-07-25T23:47:56.185Z,97504.55
2022-07-25T23:50:23.662Z,97502.45
2022-07-25T23:52:51.058Z,97505.66
2022-07-25T23:55:18.250Z,97503.22
2022-07-25T23:57:45.929Z,97504.80
